Time;durP1;ratioP1;P1;durP2;ratioP2;P2;SDS_P1;SDS_P2;PMS_P1;PMS_P2;Temp;Humidity;BMP_temperature;BMP_pressure;BME280_temperature;BME280_humidity;BME280_pressure;Samples;Min_cycle;Max_cycle;Signal;HPM_P1;HPM_P2
2022/10/20 00:01:07;;;;;;;4.68;1.45;;;;;;;14.90;45.80;98938.44;5303321;27;20057;-83
2022/10/20 00:03:34;;;;;;;3.10;1.30;;;;;;;14.30;47.25;98935.06;5302981;27;20468;-83
2022/10/20 00:06:15;;;;;;;3.03;1.37;;;;;;;14.16;47.53;98934.81;5302655;27;20117;-83
2022/10/20 00:08:43;;;;;;;3.00;1.40;;;;;;;14.03;48.34;98942.25;5283532;27;20029;-83
2022/10/20 00:11:12;;;;;;;3.28;1.40;;;;;;;14.01;48.65;98940.66;5283352;27;20049;-83
2022/10/20 00:13:39;;;;;;;5.55;1.48;;;;;;;14.36;47.68;98952.13;5302773;27;20057;-83
2022/10/20 00:16:07;;;;;;;4.07;1.70;;;;;;;14.41;47.55;98945.81;5302604;27;20451;-83
2022/10/20 00:18:34;;;;;;;4.57;1.67;;;;;;;14.45;47.80;98957.75;5283491;27;20063;-82
2022/10/20 00:21:06;;;;;;;2.92;1.60;;;;;;;14.00;48.63;98964.91;5282981;27;20320;-82
2022/10/20 00:23:33;;;;;;;4.55;1.70;;;;;;;14.54;47.07;98968.66;5282878;27;20121;-83
2022/10/20 00:26:06;;;;;;;3.97;1.55;;;;;;;14.50;47.30;98967.13;5302407;27;20070;-83
2022/10/20 00:28:33;;;;;;;2.62;1.48;;;;;;;13.84;48.80;98960.38;5301400;27;20086;-83
2022/10/20 00:31:01;;;;;;;3.67;1.87;;;;;;;14.09;48.37;98957.59;5301673;27;20041;-83
2022/10/20 00:33:27;;;;;;;4.53;1.73;;;;;;;13.74;49.17;98947.84;5301050;27;20061;-83
2022/10/20 00:36:00;;;;;;;5.20;1.85;;;;;;;13.86;48.99;98957.72;5300392;27;20061;-83
2022/10/20 00:38:27;;;;;;;5.65;1.92;;;;;;;13.45;49.75;98941.25;5283084;27;20030;-82
2022/10/20 00:40:54;;;;;;;6.50;2.40;;;;;;;12.28;53.39;98939.59;5310111;27;20082;-82
2022/10/20 00:43:22;;;;;;;4.72;2.05;;;;;;;11.88;55.47;98934.94;5310279;27;20032;-83
2022/10/20 00:45:55;;;;;;;6.10;1.92;;;;;;;12.73;53.56;98934.47;5309328;27;20041;-83
2022/10/20 00:48:25;;;;;;;7.62;1.67;;;;;;;12.79;53.36;98932.56;5289162;27;20089;-83
2022/10/20 00:50:54;;;;;;;5.60;2.00;;;;;;;13.09;50.04;98935.75;5290601;27;20049;-83
2022/10/20 00:53:22;;;;;;;4.55;2.00;;;;;;;13.17;49.22;98939.69;5309105;27;20148;-83
2022/10/20 00:55:51;;;;;;;6.05;2.40;;;;;;;12.31;52.28;98946.38;5307219;27;20062;-83
2022/10/20 00:58:18;;;;;;;6.12;2.58;;;;;;;11.74;55.44;98939.69;5307581;27;20057;-83
2022/10/20 01:00:47;;;;;;;7.72;2.60;;;;;;;12.19;55.96;98947.66;5306893;27;20062;-83
2022/10/20 01:03:25;;;;;;;6.68;2.87;;;;;;;12.48;55.71;98936.28;5307341;27;20025;-83
2022/10/20 01:05:52;;;;;;;8.23;2.78;;;;;;;11.86;57.40;98932.41;5290525;27;20110;-83
2022/10/20 01:08:19;;;;;;;7.60;2.92;;;;;;;12.99;54.66;98932.66;5309826;27;20755;-83
2022/10/20 01:11:05;;;;;;;7.53;2.50;;;;;;;13.23;53.10;98936.06;5306424;27;20049;-83
2022/10/20 01:13:50;;;;;;;8.70;2.72;;;;;;;13.33;52.36;98934.81;5310462;27;20041;-83
2022/10/20 01:16:53;;;;;;;7.00;2.78;;;;;;;13.22;52.30;98939.56;5311925;27;20300;-83
2022/10/20 01:19:41;;;;;;;6.78;3.00;;;;;;;12.70;53.98;98928.56;5315309;27;20025;-83
2022/10/20 01:22:23;;;;;;;10.32;3.37;;;;;;;13.12;53.60;98926.09;5314998;27;20062;-83
2022/10/20 01:25:02;;;;;;;6.93;3.00;;;;;;;12.97;53.86;98927.53;5314621;27;20029;-83
2022/10/20 01:27:36;;;;;;;7.15;2.75;;;;;;;13.34;53.58;98931.31;5314968;27;20029;-83
2022/10/20 01:30:06;;;;;;;9.63;3.55;;;;;;;13.21;53.86;98927.50;5295828;27;20743;-83
2022/10/20 01:33:00;;;;;;;9.45;3.22;;;;;;;12.36;56.56;98921.19;5314175;27;20053;-83
2022/10/20 01:35:40;;;;;;;8.38;3.08;;;;;;;11.56;61.30;98931.66;5312992;27;20156;-83
2022/10/20 01:38:15;;;;;;;9.55;2.95;;;;;;;11.39;62.34;98925.34;5312193;27;20058;-83
2022/10/20 01:40:48;;;;;;;13.00;3.60;;;;;;;11.54;61.23;98922.25;5293621;27;20040;-83
2022/10/20 01:43:18;;;;;;;7.75;3.10;;;;;;;10.92;63.88;98918.16;5313267;27;20021;-83
2022/10/20 01:45:48;;;;;;;9.32;3.45;;;;;;;12.04;60.38;98919.75;5295852;27;20073;-83
2022/10/20 01:48:18;;;;;;;7.82;2.97;;;;;;;14.02;52.24;98916.38;5296018;27;20029;-83
2022/10/20 01:50:46;;;;;;;8.07;2.90;;;;;;;13.97;50.03;98916.59;5314033;27;20021;-83
2022/10/20 01:53:13;;;;;;;7.47;2.78;;;;;;;13.43;50.58;98915.38;5291477;27;20101;-83
2022/10/20 01:55:40;;;;;;;6.93;2.60;;;;;;;13.33;51.08;98916.66;5304596;27;20065;-83
2022/10/20 01:58:15;;;;;;;7.05;2.80;;;;;;;13.24;51.33;98915.28;5284673;27;20423;-83
2022/10/20 02:00:43;;;;;;;8.90;3.10;;;;;;;11.87;55.00;98922.91;5267730;27;20605;-83
2022/10/20 02:03:31;;;;;;;7.25;2.87;;;;;;;11.89;55.60;98918.53;5267417;27;20104;-83
2022/10/20 02:06:07;;;;;;;8.07;3.20;;;;;;;12.11;54.85;98923.78;5285776;27;20111;-83
2022/10/20 02:08:47;;;;;;;8.50;3.10;;;;;;;12.49;54.47;98922.44;5285315;27;20472;-83
2022/10/20 02:11:29;;;;;;;7.47;3.12;;;;;;;12.78;53.14;98921.38;5285098;27;20032;-82
2022/10/20 02:13:57;;;;;;;7.28;3.10;;;;;;;11.79;55.67;98927.44;5304057;27;20050;-82
2022/10/20 02:16:33;;;;;;;9.57;3.17;;;;;;;12.89;53.19;98913.19;5284520;27;20125;-82
2022/10/20 02:19:01;;;;;;;13.52;3.85;;;;;;;12.98;53.36;98915.44;5285006;27;20073;-82
2022/10/20 02:21:28;;;;;;;9.10;3.28;;;;;;;11.67;56.74;98918.37;5304439;27;20044;-83
2022/10/20 02:23:56;;;;;;;10.95;3.60;;;;;;;11.27;58.96;98917.09;5304110;27;20049;-83
2022/10/20 02:26:24;;;;;;;8.88;3.40;;;;;;;11.62;58.14;98922.03;5290130;27;20057;-83
2022/10/20 02:28:58;;;;;;;6.97;3.08;;;;;;;12.80;55.30;98911.78;5276458;27;20096;-83
2022/10/20 02:31:25;;;;;;;10.15;3.55;;;;;;;13.13;55.01;98909.63;5290714;27;20025;-83
2022/10/20 02:33:54;;;;;;;7.78;2.80;;;;;;;12.21;56.53;98912.22;5309357;27;20101;-83
2022/10/20 02:36:25;;;;;;;9.48;3.53;;;;;;;13.40;52.93;98912.94;5291454;27;20061;-83
2022/10/20 02:38:52;;;;;;;7.90;2.97;;;;;;;13.84;51.43;98907.66;5310877;27;20079;-83
2022/10/20 02:41:18;;;;;;;7.82;3.10;;;;;;;12.43;55.33;98907.97;5311616;27;20035;-83
2022/10/20 02:43:45;;;;;;;8.32;2.90;;;;;;;12.39;55.32;98906.41;5313585;27;20028;-83
2022/10/20 02:46:12;;;;;;;8.55;3.15;;;;;;;13.01;54.16;98917.91;5291838;27;20061;-83
2022/10/20 02:48:44;;;;;;;6.87;2.83;;;;;;;13.69;52.05;98918.66;5312855;27;20060;-83
2022/10/20 02:51:12;;;;;;;7.15;2.95;;;;;;;12.99;53.64;98917.97;5302359;27;20046;-83
2022/10/20 02:53:39;;;;;;;9.32;3.22;;;;;;;13.74;50.90;98912.38;5282114;27;20640;-83
2022/10/20 02:56:07;;;;;;;8.10;2.90;;;;;;;13.61;50.67;98908.63;5302265;27;20081;-83
2022/10/20 02:58:34;;;;;;;8.55;3.08;;;;;;;12.40;53.45;98909.84;5282237;27;20125;-83
2022/10/20 03:01:01;;;;;;;7.93;2.92;;;;;;;11.75;55.25;98918.97;5301163;27;20098;-83
2022/10/20 03:03:28;;;;;;;7.47;3.25;;;;;;;12.11;54.54;98916.88;5281340;27;20064;-83
2022/10/20 03:05:55;;;;;;;7.70;3.00;;;;;;;12.92;52.28;98918.25;5300791;27;20125;-82
2022/10/20 03:08:22;;;;;;;9.77;3.05;;;;;;;12.58;52.50;98916.09;5308163;27;20708;-82
2022/10/20 03:10:49;;;;;;;7.85;3.20;;;;;;;12.62;53.68;98926.25;5309411;27;20036;-82
2022/10/20 03:13:16;;;;;;;9.77;3.17;;;;;;;12.98;52.72;98916.28;5309601;27;20032;-82
2022/10/20 03:15:43;;;;;;;7.03;2.72;;;;;;;12.42;54.30;98916.63;5313698;27;20050;-82
2022/10/20 03:18:10;;;;;;;6.72;2.72;;;;;;;12.70;51.90;98923.41;5296841;27;20074;-82
2022/10/20 03:20:36;;;;;;;7.50;2.70;;;;;;;12.41;52.28;98919.28;5312361;27;20057;-83
2022/10/20 03:23:03;;;;;;;;;;;;;;;11.06;55.57;98920.34;5314564;27;20024;-83
2022/10/20 03:25:32;;;;;;;5.70;2.50;;;;;;;11.11;56.22;98925.38;5314226;27;19936;-83
2022/10/20 03:27:59;;;;;;;7.75;2.80;;;;;;;11.12;56.08;98929.62;5314765;27;20078;-83
2022/10/20 03:30:26;;;;;;;;;;;;;;;10.74;57.13;98936.81;5315719;27;20025;-83
2022/10/20 03:32:53;;;;;;;9.02;2.67;;;;;;;10.65;58.87;98924.16;5315830;27;19933;-83
2022/10/20 03:35:20;;;;;;;7.87;2.92;;;;;;;11.34;57.49;98922.06;5296971;27;20032;-83
2022/10/20 03:37:47;;;;;;;;;;;;;;;11.05;57.91;98928.97;5316601;27;20026;-83
2022/10/20 03:40:13;;;;;;;9.40;3.05;;;;;;;11.68;55.08;98929.56;5295224;27;19941;-82
2022/10/20 03:42:40;;;;;;;7.93;3.10;;;;;;;11.32;56.82;98934.19;5311541;27;20028;-83
2022/10/20 03:45:08;;;;;;;6.85;2.87;;;;;;;11.29;57.33;98933.41;5313413;27;20079;-83
2022/10/20 03:47:35;;;;;;;8.63;2.95;;;;;;;11.50;56.79;98933.59;5297411;27;20033;-83
2022/10/20 03:50:02;;;;;;;7.30;2.92;;;;;;;11.43;57.27;98932.94;5316405;27;20039;-83
2022/10/20 03:52:35;;;;;;;7.03;2.92;;;;;;;11.51;58.00;98930.97;5317141;27;20033;-83
2022/10/20 03:55:02;;;;;;;7.25;2.87;;;;;;;12.10;55.30;98927.28;5317136;27;20073;-83
2022/10/20 03:57:29;;;;;;;9.55;3.30;;;;;;;11.57;56.08;98932.50;5298938;27;20037;-83
2022/10/20 03:59:56;;;;;;;8.05;2.85;;;;;;;12.06;54.54;98917.94;5317208;27;20062;-83
2022/10/20 04:02:31;;;;;;;;;;;;;;;12.02;54.25;98918.97;5317815;27;20025;-83
2022/10/20 04:04:59;;;;;;;7.90;3.08;;;;;;;12.01;54.08;98927.59;5299087;27;19972;-83
2022/10/20 04:07:26;;;;;;;7.22;2.90;;;;;;;12.21;52.79;98929.50;5317571;27;20074;-83
2022/10/20 04:09:53;;;;;;;8.27;3.30;;;;;;;12.72;51.18;98929.34;5317274;27;20029;-83
2022/10/20 04:12:19;;;;;;;6.37;2.75;;;;;;;12.10;52.37;98927.28;5317282;27;20021;-83
2022/10/20 04:14:47;;;;;;;;;;;;;;;12.75;49.76;98930.06;5317367;27;20045;-82
2022/10/20 04:17:14;;;;;;;8.32;2.87;;;;;;;11.80;52.00;98932.63;5299070;27;19961;-83
2022/10/20 04:19:41;;;;;;;8.30;3.12;;;;;;;12.11;51.65;98936.72;5314987;27;20077;-83
2022/10/20 04:22:08;;;;;;;;;;;;;;;12.15;52.30;98928.81;5313084;27;20025;-84
2022/10/20 04:24:35;;;;;;;7.75;3.05;;;;;;;11.57;53.61;98940.25;5313096;27;19952;-84
2022/10/20 04:27:02;;;;;;;11.43;3.08;;;;;;;10.95;54.79;98928.44;5309310;27;20065;-83
2022/10/20 04:29:29;;;;;;;7.85;3.05;;;;;;;10.73;55.55;98935.94;5290742;27;20401;-83
2022/10/20 04:31:56;;;;;;;8.48;2.83;;;;;;;11.91;52.47;98929.69;5308274;27;20028;-83
2022/10/20 04:34:37;;;;;;;7.20;2.78;;;;;;;12.03;52.73;98931.84;5307513;27;20072;-83
2022/10/20 04:37:04;;;;;;;6.00;2.60;;;;;;;11.39;54.07;98931.38;5308555;27;20114;-83
2022/10/20 04:39:31;;;;;;;;;;;;;;;12.16;52.53;98927.94;5289339;27;20091;-83
2022/10/20 04:41:58;;;;;;;7.03;2.72;;;;;;;11.58;53.88;98931.59;5308365;27;19961;-83
2022/10/20 04:44:25;;;;;;;6.57;2.65;;;;;;;12.07;51.13;98924.81;5307992;27;20121;-83
2022/10/20 04:46:55;;;;;;;5.53;2.28;;;;;;;11.83;50.78;98918.75;5307490;27;20072;-83
2022/10/20 04:49:22;;;;;;;7.35;2.62;;;;;;;11.39;51.43;98923.63;5289508;27;20057;-83
2022/10/20 04:51:49;;;;;;;6.28;2.72;;;;;;;11.46;51.48;98926.81;5271260;27;20026;-83
2022/10/20 04:54:17;;;;;;;6.35;2.60;;;;;;;11.17;52.01;98923.44;5288973;27;20123;-83
2022/10/20 04:56:44;;;;;;;6.75;2.78;;;;;;;11.09;52.59;98927.16;5309058;27;20025;-83
2022/10/20 04:59:11;;;;;;;8.73;2.58;;;;;;;10.94;53.08;98923.28;5309839;27;20028;-83
2022/10/20 05:01:39;;;;;;;9.50;3.00;;;;;;;10.42;54.42;98917.94;5305107;27;20096;-83
2022/10/20 05:04:06;;;;;;;8.55;3.05;;;;;;;10.38;55.57;98915.47;5306161;27;20093;-83
2022/10/20 05:06:33;;;;;;;;;;;;;;;10.52;55.22;98923.66;5305019;27;20053;-83
2022/10/20 05:09:02;;;;;;;8.38;2.60;;;;;;;10.62;54.85;98929.41;5284779;27;19961;-83
2022/10/20 05:11:30;;;;;;;10.38;3.30;;;;;;;11.06;53.79;98935.84;5304370;27;20045;-83
2022/10/20 05:13:57;;;;;;;8.20;3.00;;;;;;;10.99;53.84;98932.59;5284628;27;20070;-83
2022/10/20 05:16:24;;;;;;;;;;;;;;;10.75;54.81;98943.66;5303897;27;20053;-83
2022/10/20 05:18:52;;;;;;;8.03;2.70;;;;;;;10.55;56.48;98941.66;5283339;27;20285;-83
2022/10/20 05:21:22;;;;;;;8.35;3.12;;;;;;;10.74;56.42;98941.97;5303016;27;20053;-83
2022/10/20 05:23:55;;;;;;;7.35;3.10;;;;;;;10.31;58.63;98937.16;5302539;27;20068;-83
2022/10/20 05:26:22;;;;;;;8.82;3.33;;;;;;;10.03;60.17;98945.62;5282708;27;20065;-83
2022/10/20 05:28:50;;;;;;;12.25;3.60;;;;;;;9.79;61.50;98946.25;5302424;27;20116;-83
2022/10/20 05:31:19;;;;;;;7.65;3.15;;;;;;;10.79;59.57;98960.75;5300667;27;20048;-83
2022/10/20 05:33:50;;;;;;;6.05;2.60;;;;;;;11.78;54.11;98955.06;5300704;27;20111;-82
2022/10/20 05:36:21;;;;;;;8.65;2.95;;;;;;;11.56;53.64;98967.00;5313164;27;20025;-83
2022/10/20 05:38:50;;;;;;;7.95;3.10;;;;;;;10.72;55.79;98961.78;5312449;27;20038;-83
2022/10/20 05:41:19;;;;;;;10.88;3.47;;;;;;;11.00;54.40;98972.19;5312738;27;20021;-83
2022/10/20 05:43:48;;;;;;;9.07;2.90;;;;;;;10.95;54.63;98968.88;5290033;27;20030;-83
2022/10/20 05:46:20;;;;;;;7.80;2.90;;;;;;;10.45;55.49;98978.91;5288095;27;20068;-83
2022/10/20 05:48:47;;;;;;;8.98;2.97;;;;;;;10.17;56.28;98986.50;5281189;27;20418;-82
2022/10/20 05:51:15;;;;;;;;;;;;;;;10.38;55.87;98969.66;5280711;27;20053;-83
2022/10/20 05:53:42;;;;;;;6.60;2.55;;;;;;;10.92;54.55;98979.28;5278164;27;19965;-83
2022/10/20 05:56:12;;;;;;;8.93;3.25;;;;;;;11.41;53.99;98980.41;5284149;27;20038;-84
2022/10/20 05:58:42;;;;;;;6.50;2.30;;;;;;;11.56;54.73;98987.66;5285088;27;20054;-84
2022/10/20 06:01:20;;;;;;;7.28;2.62;;;;;;;12.73;51.84;98981.09;5284587;27;20919;-83
2022/10/20 06:03:52;;;;;;;6.25;2.65;;;;;;;13.83;50.05;98983.78;5284224;26;20624;-83
2022/10/20 06:06:21;;;;;;;7.68;2.75;;;;;;;14.86;46.88;98986.25;5277434;27;20150;-83
2022/10/20 06:08:49;;;;;;;8.48;2.25;;;;;;;15.75;45.38;98998.56;5280130;27;20080;-83
2022/10/20 06:11:20;;;;;;;7.87;2.42;;;;;;;16.80;42.07;98988.91;5278308;27;20098;-83
2022/10/20 06:13:47;;;;;;;8.07;2.78;;;;;;;17.27;41.55;99004.63;5277268;27;20065;-83
2022/10/20 06:16:21;;;;;;;6.95;2.60;;;;;;;17.47;40.97;99003.53;5277412;27;20088;-83
2022/10/20 06:18:49;;;;;;;15.43;3.78;;;;;;;17.99;40.65;99008.44;5278878;27;20073;-84
2022/10/20 06:21:20;;;;;;;11.12;4.57;;;;;;;18.46;38.74;99009.09;5278927;27;20042;-83
2022/10/20 06:23:48;;;;;;;6.85;2.45;;;;;;;19.14;37.13;99012.84;5277429;27;20057;-80
2022/10/20 06:26:17;;;;;;;8.20;2.30;;;;;;;18.51;37.74;99014.06;5275800;27;20084;-80
2022/10/20 06:28:45;;;;;;;6.62;2.53;;;;;;;18.74;37.95;99028.41;5275956;27;20122;-79
2022/10/20 06:31:18;;;;;;;4.30;1.95;;;;;;;19.71;36.69;99033.72;5276184;27;20050;-77
2022/10/20 06:33:45;;;;;;;6.05;2.30;;;;;;;20.28;36.39;99034.28;5277077;27;20061;-77
2022/10/20 06:36:13;;;;;;;6.47;2.40;;;;;;;21.06;35.04;99031.59;5276316;27;20065;-78
2022/10/20 06:38:40;;;;;;;8.10;2.40;;;;;;;21.49;34.29;99032.03;5276123;27;20483;-79
2022/10/20 06:41:10;;;;;;;6.05;2.33;;;;;;;22.11;33.66;99037.12;5274935;27;20046;-78
2022/10/20 06:43:37;;;;;;;6.62;2.40;;;;;;;23.15;32.35;99038.88;5276401;27;20412;-78
2022/10/20 06:46:07;;;;;;;4.82;2.45;;;;;;;23.80;31.24;99036.25;5275867;27;20408;-83
2022/10/20 06:48:34;;;;;;;6.40;2.78;;;;;;;23.94;30.69;99048.34;5276231;27;20050;-83
2022/10/20 06:51:07;;;;;;;7.10;2.60;;;;;;;24.13;30.25;99043.19;5276040;27;20407;-82
2022/10/20 06:53:35;;;;;;;8.32;2.53;;;;;;;23.38;31.21;99046.63;5276681;27;20049;-84
2022/10/20 06:56:07;;;;;;;7.18;2.22;;;;;;;24.44;30.10;99054.69;5276772;27;20114;-83
2022/10/20 06:58:36;;;;;;;5.93;2.37;;;;;;;25.22;28.85;99052.50;5276554;27;20064;-84
2022/10/20 07:01:08;;;;;;;6.35;2.80;;;;;;;25.72;28.54;99055.16;5277191;26;20066;-84
2022/10/20 07:03:37;;;;;;;5.43;2.67;;;;;;;25.82;28.34;99048.91;5277409;27;20057;-84
2022/10/20 07:06:05;;;;;;;6.90;2.53;;;;;;;25.19;29.91;99043.03;5276530;27;20057;-83
2022/10/20 07:08:33;;;;;;;7.22;2.95;;;;;;;24.66;29.91;99051.09;5277259;27;20128;-84
2022/10/20 07:11:01;;;;;;;10.10;2.75;;;;;;;24.60;30.32;99045.50;5277306;27;20072;-84
2022/10/20 07:13:29;;;;;;;7.37;3.15;;;;;;;25.53;28.97;99046.22;5277260;27;20470;-84
2022/10/20 07:15:57;;;;;;;6.47;2.75;;;;;;;24.52;31.60;99047.00;5276943;27;20408;-84
2022/10/20 07:18:25;;;;;;;7.50;2.70;;;;;;;23.85;33.13;99043.81;5277470;27;20045;-83
2022/10/20 07:21:01;;;;;;;5.72;2.40;;;;;;;23.10;34.84;99049.78;5276432;27;20476;-83
2022/10/20 07:23:29;;;;;;;6.70;2.60;;;;;;;22.45;36.28;99051.25;5277435;27;20494;-83
2022/10/20 07:26:09;;;;;;;7.22;2.75;;;;;;;20.05;40.39;99048.91;5276951;27;20076;-83
2022/10/20 07:28:38;;;;;;;7.60;2.83;;;;;;;20.26;40.71;99044.03;5277167;27;20054;-83
2022/10/20 07:31:07;;;;;;;7.35;2.75;;;;;;;19.11;43.22;99045.28;5277089;27;20045;-83
2022/10/20 07:33:34;;;;;;;10.70;2.92;;;;;;;19.19;42.90;99040.41;5277495;27;20053;-83
2022/10/20 07:36:01;;;;;;;6.50;2.90;;;;;;;20.32;40.67;99048.87;5277001;27;20072;-82
2022/10/20 07:38:28;;;;;;;7.95;2.80;;;;;;;19.41;42.43;99041.69;5275397;27;20050;-84
2022/10/20 07:41:01;;;;;;;9.43;3.08;;;;;;;19.67;41.22;99047.91;5276823;27;20053;-83
2022/10/20 07:43:29;;;;;;;10.77;3.83;;;;;;;19.56;41.21;99041.59;5279254;27;20064;-83
2022/10/20 07:45:56;;;;;;;8.25;2.92;;;;;;;18.59;43.04;99030.09;5299214;27;20459;-83
2022/10/20 07:48:23;;;;;;;8.15;2.72;;;;;;;18.20;43.26;99041.16;5298960;27;20049;-83
2022/10/20 07:50:52;;;;;;;8.73;2.62;;;;;;;18.61;43.27;99035.25;5299460;27;20056;-83
2022/10/20 07:53:20;;;;;;;8.25;2.85;;;;;;;18.65;43.80;99036.78;5298744;27;20159;-82
2022/10/20 07:55:47;;;;;;;7.47;2.87;;;;;;;18.25;44.47;99043.50;5298863;27;20065;-83
2022/10/20 07:58:15;;;;;;;7.50;2.78;;;;;;;18.50;42.64;99038.50;5298112;27;20049;-83
2022/10/20 08:00:44;;;;;;;7.65;2.53;;;;;;;18.09;43.89;99039.16;5299184;27;20045;-82
2022/10/20 08:03:11;;;;;;;6.12;2.55;;;;;;;19.06;42.69;99042.97;5299446;27;20110;-82
2022/10/20 08:05:38;;;;;;;7.72;2.55;;;;;;;18.52;43.74;99041.03;5298941;27;20080;-83
2022/10/20 08:08:05;;;;;;;8.38;3.03;;;;;;;19.00;42.76;99056.41;5298292;27;20050;-83
2022/10/20 08:10:31;;;;;;;5.72;2.72;;;;;;;19.57;41.87;99045.91;5298919;27;20060;-83
2022/10/20 08:13:01;;;;;;;8.25;3.05;;;;;;;19.89;40.60;99043.00;5299442;27;20053;-83
2022/10/20 08:15:33;;;;;;;7.22;2.80;;;;;;;19.05;41.92;99041.28;5298881;27;20100;-83
2022/10/20 08:18:04;;;;;;;9.05;3.03;;;;;;;18.64;42.63;99042.91;5298854;27;20064;-83
2022/10/20 08:20:31;;;;;;;7.28;3.10;;;;;;;17.95;44.01;99046.09;5300153;27;20449;-82
2022/10/20 08:23:03;;;;;;;6.78;2.72;;;;;;;17.27;44.84;99038.53;5299053;27;20068;-83
2022/10/20 08:25:36;;;;;;;7.90;2.72;;;;;;;17.73;44.58;99039.47;5299124;27;20057;-83
2022/10/20 08:28:08;;;;;;;9.52;3.40;;;;;;;17.33;45.38;99040.78;5298803;27;20064;-83
2022/10/20 08:30:40;;;;;;;7.90;3.10;;;;;;;17.21;45.54;99047.50;5299352;27;20317;-84
2022/10/20 08:33:09;;;;;;;5.65;2.55;;;;;;;17.84;44.62;99047.53;5299042;27;20108;-84
2022/10/20 08:35:36;;;;;;;9.02;2.90;;;;;;;17.86;44.92;99055.28;5299087;27;20057;-84
2022/10/20 08:38:05;;;;;;;9.35;2.90;;;;;;;18.89;43.52;99043.16;5299553;27;20049;-84
2022/10/20 08:40:33;;;;;;;8.82;2.30;;;;;;;18.91;43.18;99040.44;5301315;27;20060;-83
2022/10/20 08:43:00;;;;;;;9.38;2.95;;;;;;;19.23;42.65;99041.91;5281265;27;20480;-83
2022/10/20 08:45:28;;;;;;;8.68;3.00;;;;;;;19.65;41.10;99048.84;5299434;27;20075;-83
2022/10/20 08:47:56;;;;;;;6.65;2.42;;;;;;;19.70;39.74;99047.75;5298552;27;20056;-83
2022/10/20 08:50:26;;;;;;;9.32;3.08;;;;;;;19.23;41.39;99054.13;5299177;27;20049;-83
2022/10/20 08:52:56;;;;;;;9.38;3.25;;;;;;;20.46;40.08;99054.03;5281384;27;20378;-83
2022/10/20 08:55:31;;;;;;;6.47;2.78;;;;;;;19.43;41.89;99055.50;5279439;27;20057;-85
2022/10/20 08:58:09;;;;;;;9.25;2.80;;;;;;;20.75;38.57;99049.47;5297747;27;20060;-85
2022/10/20 09:00:42;;;;;;;6.95;2.80;;;;;;;20.38;39.50;99055.47;5279860;27;20072;-85
2022/10/20 09:03:23;;;;;;;5.35;2.45;;;;;;;20.35;39.31;99051.28;5299416;27;20329;-85
2022/10/20 09:05:55;;;;;;;8.75;2.97;;;;;;;19.98;39.54;99046.78;5299034;27;20065;-85
2022/10/20 09:08:25;;;;;;;6.20;2.70;;;;;;;19.51;41.15;99051.47;5298722;27;20061;-86
2022/10/20 09:10:53;;;;;;;12.40;3.95;;;;;;;19.71;40.53;99050.25;5299007;27;20423;-86
2022/10/20 09:13:25;;;;;;;7.50;2.53;;;;;;;19.21;41.74;99045.56;5279212;27;20121;-86
2022/10/20 09:15:58;;;;;;;8.98;2.58;;;;;;;20.14;40.56;99048.31;5279148;27;20061;-85
2022/10/20 09:18:25;;;;;;;8.10;2.40;;;;;;;20.04;40.20;99052.47;5299983;27;20056;-85
2022/10/20 09:20:58;;;;;;;5.68;2.60;;;;;;;20.10;39.79;99051.22;5300887;27;20064;-85
2022/10/20 09:23:30;;;;;;;11.60;2.75;;;;;;;20.21;39.17;99051.38;5282087;26;20075;-86
2022/10/20 09:26:36;;;;;;;6.40;2.50;;;;;;;20.10;38.55;99035.50;5280419;27;20687;-86
2022/10/20 09:29:34;;;;;;;7.22;2.92;;;;;;;19.26;40.49;99043.50;5298313;27;20064;-85
2022/10/20 09:32:01;;;;;;;6.80;2.25;;;;;;;19.88;40.92;99044.78;5298317;27;20055;-86
2022/10/20 09:34:48;;;;;;;8.13;2.97;;;;;;;19.40;41.14;99043.47;5298139;27;20061;-86
2022/10/20 09:37:17;;;;;;;6.85;2.67;;;;;;;19.10;41.33;99040.16;5298095;27;20057;-86
2022/10/20 09:39:57;;;;;;;6.75;2.35;;;;;;;19.05;41.18;99045.69;5279429;27;20065;-85
2022/10/20 09:42:34;;;;;;;6.97;2.45;;;;;;;19.41;41.80;99047.75;5299869;27;20063;-84
2022/10/20 09:45:15;;;;;;;;;;;;;;;19.02;42.15;99041.44;5298836;27;20061;-85
2022/10/20 09:47:45;;;;;;;7.03;2.50;;;;;;;19.19;41.98;99043.03;5297717;27;19968;-83
2022/10/20 09:50:28;;;;;;;8.93;2.90;;;;;;;18.35;43.01;99045.47;5279322;27;20052;-83
2022/10/20 09:52:55;;;;;;;12.13;3.00;;;;;;;18.43;44.17;99045.88;5279551;27;20101;-83
2022/10/20 09:55:40;;;;;;;6.95;2.50;;;;;;;18.26;42.64;99040.78;5297920;27;20065;-82
2022/10/20 09:58:25;;;;;;;7.12;2.67;;;;;;;17.93;43.57;99033.13;5278737;27;20066;-83
2022/10/20 10:01:11;;;;;;;6.28;2.67;;;;;;;18.12;43.62;99045.97;5281194;27;20054;-85
2022/10/20 10:03:43;;;;;;;6.97;2.45;;;;;;;18.30;42.48;99038.84;5281122;27;20059;-86
2022/10/20 10:06:33;;;;;;;5.65;2.50;;;;;;;18.44;43.11;99049.31;5299331;27;20124;-85
2022/10/20 10:09:01;;;;;;;7.72;2.60;;;;;;;18.54;42.00;99045.25;5305195;27;20029;-84
2022/10/20 10:11:33;;;;;;;7.30;2.40;;;;;;;18.68;41.80;99050.50;5302520;27;20022;-86
2022/10/20 10:14:01;;;;;;;6.90;2.60;;;;;;;19.43;41.49;99047.66;5281808;27;20327;-85
2022/10/20 10:16:39;;;;;;;6.62;2.65;;;;;;;18.97;41.79;99043.53;5280285;27;20072;-86
2022/10/20 10:19:06;;;;;;;6.07;2.50;;;;;;;19.03;40.83;99042.28;5281107;27;20061;-86
2022/10/20 10:21:47;;;;;;;7.37;2.45;;;;;;;19.36;40.56;99034.16;5300728;27;20087;-86
2022/10/20 10:24:41;;;;;;;6.32;2.70;;;;;;;20.30;38.32;99026.31;5280061;27;20308;-81
2022/10/20 10:27:26;;;;;;;6.75;2.22;;;;;;;19.40;40.09;99033.00;5277298;27;20635;-79
2022/10/20 10:29:54;;;;;;;6.72;2.37;;;;;;;19.17;41.24;99026.59;5260488;27;20057;-78
2022/10/20 10:32:27;;;;;;;5.57;2.40;;;;;;;19.76;39.34;99024.59;5278199;27;20571;-78
2022/10/20 10:35:03;;;;;;;6.97;2.40;;;;;;;18.86;39.65;99022.41;5278979;27;20095;-78
2022/10/20 10:37:30;;;;;;;7.00;2.30;;;;;;;18.98;39.39;99018.22;5298149;27;20064;-79
2022/10/20 10:40:04;;;;;;;5.15;2.12;;;;;;;19.45;39.67;99030.09;5298415;27;20075;-79
2022/10/20 10:42:52;;;;;;;4.87;2.10;;;;;;;20.17;37.36;99026.28;5277011;27;20057;-79
2022/10/20 10:45:35;;;;;;;5.47;2.30;;;;;;;19.63;39.42;99023.72;5298467;27;20105;-79
2022/10/20 10:48:17;;;;;;;6.45;2.40;;;;;;;19.35;39.68;99016.72;5297151;27;20072;-79
2022/10/20 10:50:59;;;;;;;4.93;2.17;;;;;;;20.05;37.70;99009.59;5298078;27;20065;-79
2022/10/20 10:54:04;;;;;;;5.82;2.12;;;;;;;20.86;36.34;99004.13;5278948;27;20066;-78
2022/10/20 10:56:56;;;;;;;7.18;2.30;;;;;;;20.60;35.99;99005.91;5296693;27;20506;-78
2022/10/20 10:59:28;;;;;;;6.03;2.00;;;;;;;20.26;36.86;98998.62;5278543;27;20091;-79
2022/10/20 11:02:17;;;;;;;4.68;2.05;;;;;;;20.58;36.28;99002.56;5278970;27;20086;-79
2022/10/20 11:05:17;;;;;;;5.75;2.40;;;;;;;21.21;34.63;98998.19;5298135;27;20591;-82
2022/10/20 11:07:44;;;;;;;6.45;2.08;;;;;;;20.95;34.67;98990.38;5296821;27;20111;-81
2022/10/20 11:10:22;;;;;;;6.50;2.17;;;;;;;21.06;35.53;98990.47;5298339;27;20057;-81
2022/10/20 11:13:13;;;;;;;5.93;2.08;;;;;;;20.51;37.04;98989.03;5278694;27;20061;-81
2022/10/20 11:16:05;;;;;;;4.65;2.30;;;;;;;21.11;35.24;98990.13;5298428;27;20049;-81
2022/10/20 11:18:44;;;;;;;5.55;2.30;;;;;;;21.06;34.94;98977.34;5277796;27;20418;-81
2022/10/20 11:21:13;;;;;;;6.40;2.10;;;;;;;20.69;36.79;98980.84;5298487;27;20079;-81
2022/10/20 11:23:52;;;;;;;7.00;2.42;;;;;;;21.00;36.40;98983.00;5298475;27;20071;-80
2022/10/20 11:26:27;;;;;;;4.75;2.12;;;;;;;21.70;34.35;98973.66;5297325;27;20071;-82
2022/10/20 11:28:55;;;;;;;5.68;2.30;;;;;;;22.01;33.10;98973.06;5278515;27;20069;-81
2022/10/20 11:31:36;;;;;;;5.10;2.20;;;;;;;21.48;35.15;98970.00;5297835;27;20065;-81
2022/10/20 11:34:13;;;;;;;6.25;2.08;;;;;;;20.93;35.12;98959.94;5278482;27;20065;-81
2022/10/20 11:36:45;;;;;;;4.03;1.90;;;;;;;22.46;32.82;98962.66;5297280;27;20045;-81
2022/10/20 11:39:44;;;;;;;4.18;1.90;;;;;;;22.28;34.00;98962.28;5297444;27;20409;-82
2022/10/20 11:42:29;;;;;;;5.47;2.03;;;;;;;21.66;34.31;98959.91;5298469;27;20061;-81
2022/10/20 11:44:59;;;;;;;6.85;2.35;;;;;;;21.87;33.51;98955.69;5279967;27;20098;-82
2022/10/20 11:47:33;;;;;;;4.47;2.05;;;;;;;21.40;34.30;98946.06;5297935;27;20064;-81
2022/10/20 11:50:04;;;;;;;4.43;1.80;;;;;;;21.55;33.85;98941.47;5279279;27;20423;-82
2022/10/20 11:52:57;;;;;;;5.37;2.10;;;;;;;21.14;35.40;98939.19;5279667;27;20659;-82
2022/10/20 11:55:36;;;;;;;4.75;1.90;;;;;;;21.51;34.66;98933.00;5299065;27;20068;-82
2022/10/20 11:58:14;;;;;;;6.85;2.00;;;;;;;19.76;36.55;98919.84;5297546;27;20406;-81